Witchford, United Kingdom
Current Conditions -  °F | °C
As of 8:28 AM on Monday 26 Jan 2015 (Local Time) from EGUN Reporting Station
Overcast Overcast  
Wind Chill: 43°   Ceiling: 1700
Heat Index: 48°   Visibility: 6mi
Dew Point: 45°   Wind: 12mph
Humidity: 87%   Direction: 270°W
Pressure: 30.12"   Gusts: NA
Location:  52.39°N, 0.21°E
Report Text: EGUN 260828Z AUTO 27010KT 9999 SCT010 OVC017 09/07 A3012 RMK AO2
Loading
Personal Weather Stations






























Interactive Weather Map New forecast layout! Learn more

10-Day Weather Forecast

Advertisements
Track Severe Weather on mobile